Time;durP1;ratioP1;P1;durP2;ratioP2;P2;SDS_P1;SDS_P2;PMS_P1;PMS_P2;Temp;Humidity;BMP_temperature;BMP_pressure;BME280_temperature;BME280_humidity;BME280_pressure;Samples;Min_cycle;Max_cycle;Signal;HPM_P1;HPM_P2
2021/10/12 00:00:06;;;;;;;0.60;0.60;;;;;;;;;;7331973;19;153669;-16
2021/10/12 00:02:39;;;;;;;0.50;0.50;;;;;;;;;;7331519;19;161854;-16
2021/10/12 00:05:08;;;;;;;1.42;0.65;;;;;;;;;;7331199;19;162370;-11
2021/10/12 00:07:36;;;;;;;0.50;0.50;;;;;;;;;;7329979;19;154282;-14
2021/10/12 00:10:04;;;;;;;0.52;0.52;;;;;;;;;;7329315;19;153589;-17
2021/10/12 00:12:33;;;;;;;0.55;0.55;;;;;;;;;;7331566;19;161812;-16
2021/10/12 09:06:38;;;;;;;3.63;1.05;;;;;;;;;;7369135;19;133172;-13
2021/10/12 09:09:17;;;;;;;0.90;0.90;;;;;;;;;;7364548;19;153740;-19
2021/10/12 09:11:45;;;;;;;0.85;0.85;;;;;;;;;;7364688;19;161775;-16
2021/10/12 09:14:14;;;;;;;0.90;0.90;;;;;;;;;;7365218;19;163401;-18
2021/10/12 09:16:43;;;;;;;0.85;0.85;;;;;;;;;;7367332;19;153948;-16
2021/10/12 09:19:16;;;;;;;0.75;0.75;;;;;;;;;;7365302;19;153645;-18
2021/10/12 09:21:52;;;;;;;0.75;0.75;;;;;;;;;;7367296;19;161909;-17
2021/10/12 09:24:26;;;;;;;0.80;0.80;;;;;;;;;;7366486;19;162404;-18
2021/10/12 09:27:02;;;;;;;0.73;0.73;;;;;;;;;;7367205;19;154041;-19
2021/10/12 09:32:33;;;;;;;0.77;0.57;;;;;;;;;;7365401;19;162129;-16
2021/10/12 09:35:02;;;;;;;0.60;0.60;;;;;;;;;;7362672;19;162813;-15
2021/10/12 09:37:30;;;;;;;0.60;0.60;;;;;;;;;;7363495;19;154130;-15
2021/10/12 09:39:58;;;;;;;0.80;0.80;;;;;;;;;;7363793;19;153604;-18
2021/10/12 09:42:26;;;;;;;0.85;0.85;;;;;;;;;;7363174;19;161982;-17
2021/10/12 09:44:56;;;;;;;0.70;0.70;;;;;;;;;;7362995;19;162473;-16
2021/10/12 09:47:26;;;;;;;0.70;0.70;;;;;;;;;;7364639;19;154105;-18
2021/10/12 09:50:12;;;;;;;0.73;0.73;;;;;;;;;;7363548;19;153606;-16
2021/10/12 09:52:45;;;;;;;0.85;0.80;;;;;;;;;;7360992;19;161978;-18
2021/10/12 09:55:13;;;;;;;0.70;0.70;;;;;;;;;;7361029;19;162993;-17
2021/10/12 09:57:42;;;;;;;0.80;0.80;;;;;;;;;;7364251;19;154047;-15
2021/10/12 10:00:11;;;;;;;0.77;0.77;;;;;;;;;;7361732;19;153673;-17
2021/10/12 10:02:38;;;;;;;0.90;0.90;;;;;;;;;;7360906;19;161795;-17
2021/10/12 10:05:08;;;;;;;0.80;0.80;;;;;;;;;;7360194;19;162405;-17
2021/10/12 10:07:43;;;;;;;0.70;0.70;;;;;;;;;;7332941;19;153940;-19
2021/10/12 10:10:15;;;;;;;0.80;0.80;;;;;;;;;;7332995;19;153397;-17
2021/10/12 10:12:43;;;;;;;0.70;0.70;;;;;;;;;;7332771;19;161850;-17
2021/10/12 10:15:11;;;;;;;0.60;0.60;;;;;;;;;;7330955;19;162538;-17
2021/10/12 10:17:41;;;;;;;0.50;0.50;;;;;;;;;;7333207;19;153956;-21
2021/10/12 10:20:10;;;;;;;0.70;0.70;;;;;;;;;;7332926;19;153571;-17
2021/10/12 10:22:47;;;;;;;0.60;0.60;;;;;;;;;;7332225;19;161786;-17
2021/10/12 10:25:34;;;;;;;0.50;0.50;;;;;;;;;;7331910;19;162423;-18
2021/10/12 10:28:24;;;;;;;0.70;0.70;;;;;;;;;;7332721;19;153944;-18
2021/10/12 10:31:01;;;;;;;0.68;0.65;;;;;;;;;;7332162;19;153884;-19
2021/10/12 10:33:31;;;;;;;0.60;0.60;;;;;;;;;;7331962;19;161836;-17
2021/10/12 10:36:01;;;;;;;0.60;0.60;;;;;;;;;;7329928;19;162583;-19
2021/10/12 10:38:44;;;;;;;0.60;0.60;;;;;;;;;;7332312;19;154007;-18
2021/10/12 10:41:13;;;;;;;;;;;;;;;;;;7332490;19;153579;-18
2021/10/12 10:43:58;;;;;;;0.57;0.57;;;;;;;;;;7331932;19;162173;-18
2021/10/12 10:46:32;;;;;;;0.63;0.63;;;;;;;;;;7331812;19;162542;-17
2021/10/12 10:49:20;;;;;;;1.00;1.00;;;;;;;;;;7332115;19;153936;-15
2021/10/12 10:52:04;;;;;;;0.60;0.60;;;;;;;;;;7331767;19;153509;-18
2021/10/12 10:54:38;;;;;;;0.70;0.70;;;;;;;;;;7331438;19;161901;-16
2021/10/12 10:57:15;;;;;;;0.60;0.60;;;;;;;;;;7331718;19;163859;-17
2021/10/12 10:59:42;;;;;;;0.60;0.60;;;;;;;;;;7332315;19;154073;-18
2021/10/12 11:02:26;;;;;;;0.70;0.70;;;;;;;;;;7333261;19;153858;-17
2021/10/12 11:04:54;;;;;;;1.08;0.70;;;;;;;;;;7333754;19;161874;-16
2021/10/12 11:07:24;;;;;;;0.70;0.70;;;;;;;;;;7329883;19;162372;-15
2021/10/12 11:09:54;;;;;;;1.60;0.70;;;;;;;;;;7331656;19;154047;-17
2021/10/12 11:12:25;;;;;;;0.75;0.75;;;;;;;;;;7323001;19;153619;-18
2021/10/12 11:15:02;;;;;;;0.63;0.60;;;;;;;;;;7330815;19;161612;-18
2021/10/12 11:17:30;;;;;;;0.65;0.63;;;;;;;;;;7332407;19;162539;-17
2021/10/12 11:20:14;;;;;;;0.50;0.50;;;;;;;;;;7330508;19;153980;-18
2021/10/12 11:22:43;;;;;;;0.60;0.60;;;;;;;;;;7330812;19;153670;-18
2021/10/12 11:25:11;;;;;;;2.28;0.60;;;;;;;;;;7330285;19;162067;-17
2021/10/12 11:27:41;;;;;;;0.52;0.52;;;;;;;;;;7330675;19;162372;-17
2021/10/12 11:30:11;;;;;;;0.50;0.50;;;;;;;;;;7330871;19;153933;-18
2021/10/12 11:32:39;;;;;;;0.70;0.70;;;;;;;;;;7330539;19;153529;-16
2021/10/12 11:35:09;;;;;;;1.95;0.60;;;;;;;;;;7329485;19;161906;-16
2021/10/12 11:37:53;;;;;;;0.47;0.47;;;;;;;;;;7329935;19;162468;-16
2021/10/12 11:40:24;;;;;;;0.65;0.65;;;;;;;;;;7330834;19;154489;-17
2021/10/12 11:42:52;;;;;;;0.60;0.60;;;;;;;;;;7329383;19;153546;-16
2021/10/12 11:45:20;;;;;;;0.50;0.50;;;;;;;;;;7330107;19;161857;-17
2021/10/12 11:47:48;;;;;;;0.60;0.60;;;;;;;;;;7329628;19;162964;-19
2021/10/12 11:50:17;;;;;;;0.50;0.50;;;;;;;;;;7330348;19;154004;-18
2021/10/12 11:52:50;;;;;;;0.50;0.50;;;;;;;;;;7329949;19;153541;-18
2021/10/12 11:55:24;;;;;;;0.50;0.50;;;;;;;;;;7328879;19;161969;-18
2021/10/12 11:57:53;;;;;;;0.75;0.43;;;;;;;;;;7329705;19;162116;-16
2021/10/12 12:00:39;;;;;;;0.60;0.60;;;;;;;;;;7329982;19;153984;-18
2021/10/12 12:03:27;;;;;;;0.50;0.50;;;;;;;;;;7328484;19;153522;-16
2021/10/12 12:05:57;;;;;;;0.52;0.52;;;;;;;;;;7328858;19;161972;-17
2021/10/12 12:08:26;;;;;;;0.50;0.50;;;;;;;;;;7329239;19;162355;-16
2021/10/12 12:10:55;;;;;;;0.50;0.50;;;;;;;;;;7330694;19;153924;-17
2021/10/12 12:13:28;;;;;;;0.73;0.55;;;;;;;;;;7326578;19;153682;-18
2021/10/12 12:15:56;;;;;;;0.60;0.60;;;;;;;;;;7324331;19;161882;-15
2021/10/12 12:18:27;;;;;;;0.82;0.50;;;;;;;;;;7329358;19;162338;-17
2021/10/12 12:21:00;;;;;;;0.57;0.57;;;;;;;;;;7327004;19;153822;-14
2021/10/12 12:23:40;;;;;;;0.65;0.65;;;;;;;;;;7329617;19;153705;-15
2021/10/12 12:26:10;;;;;;;0.60;0.60;;;;;;;;;;7328802;19;162134;-16
2021/10/12 12:28:40;;;;;;;0.70;0.50;;;;;;;;;;7327966;19;162632;-15
2021/10/12 12:31:22;;;;;;;0.50;0.50;;;;;;;;;;7330035;19;153951;-18
2021/10/12 12:33:53;;;;;;;0.50;0.50;;;;;;;;;;7330024;19;153613;-17
2021/10/12 12:36:33;;;;;;;0.55;0.55;;;;;;;;;;7327905;19;161853;-15
2021/10/12 12:39:09;;;;;;;0.50;0.50;;;;;;;;;;7329648;19;162408;-16
2021/10/12 12:41:39;;;;;;;0.50;0.50;;;;;;;;;;7327276;19;153918;-18
2021/10/12 12:44:10;;;;;;;;;;;;;;;;;;7330266;19;153742;-17
2021/10/12 12:46:59;;;;;;;0.50;0.50;;;;;;;;;;7329770;19;161940;-17
2021/10/12 12:49:28;;;;;;;0.50;0.50;;;;;;;;;;7328292;19;162310;-16
2021/10/12 12:51:57;;;;;;;0.60;0.60;;;;;;;;;;7329443;19;153928;-19
2021/10/12 12:54:33;;;;;;;0.55;0.55;;;;;;;;;;7329532;19;153658;-16
2021/10/12 12:57:06;;;;;;;0.60;0.60;;;;;;;;;;7327085;19;161994;-15
2021/10/12 12:59:34;;;;;;;0.40;0.40;;;;;;;;;;7328976;19;162340;-19
2021/10/12 13:02:03;;;;;;;0.40;0.40;;;;;;;;;;7329082;19;153710;-17
2021/10/12 13:04:31;;;;;;;0.43;0.43;;;;;;;;;;7328390;19;153916;-18
2021/10/12 13:06:59;;;;;;;0.45;0.45;;;;;;;;;;7328636;19;161954;-15
2021/10/12 13:09:31;;;;;;;0.50;0.50;;;;;;;;;;7328383;19;162392;-15
2021/10/12 13:11:59;;;;;;;0.50;0.50;;;;;;;;;;7329061;19;154076;-15
2021/10/12 13:14:27;;;;;;;0.50;0.50;;;;;;;;;;7328442;19;153553;-16
2021/10/12 13:16:55;;;;;;;0.40;0.40;;;;;;;;;;7325218;19;161835;-14
2021/10/12 13:19:23;;;;;;;0.40;0.40;;;;;;;;;;7328176;19;162376;-14
2021/10/12 13:21:53;;;;;;;0.50;0.50;;;;;;;;;;7326784;19;154044;-15
2021/10/12 13:24:21;;;;;;;1.05;0.60;;;;;;;;;;7328359;19;153615;-15
2021/10/12 13:26:49;;;;;;;0.50;0.50;;;;;;;;;;7327942;19;162013;-17
2021/10/12 13:29:17;;;;;;;0.40;0.40;;;;;;;;;;7327783;19;162418;-16
2021/10/12 13:31:45;;;;;;;0.47;0.47;;;;;;;;;;7328215;19;153955;-18
2021/10/12 13:34:16;;;;;;;0.45;0.45;;;;;;;;;;7327939;19;153506;-16
2021/10/12 13:36:45;;;;;;;0.50;0.50;;;;;;;;;;7325097;19;162186;-15
2021/10/12 13:39:13;;;;;;;0.50;0.50;;;;;;;;;;7327257;19;162503;-16
2021/10/12 13:41:42;;;;;;;0.68;0.50;;;;;;;;;;7330779;19;154064;-15
2021/10/12 13:44:10;;;;;;;0.50;0.50;;;;;;;;;;7334941;19;153670;-14
2021/10/12 13:46:38;;;;;;;0.50;0.50;;;;;;;;;;7334504;19;161859;-17
2021/10/12 13:49:06;;;;;;;0.50;0.50;;;;;;;;;;7329569;19;162535;-16
2021/10/12 13:51:35;;;;;;;0.50;0.50;;;;;;;;;;7336149;19;154054;-16
2021/10/12 13:54:03;;;;;;;0.40;0.40;;;;;;;;;;7335007;19;153510;-17
2021/10/12 13:56:31;;;;;;;0.45;0.45;;;;;;;;;;7333310;19;161684;-19
2021/10/12 13:58:59;;;;;;;0.40;0.40;;;;;;;;;;7334249;19;162538;-17
2021/10/12 14:01:27;;;;;;;0.88;0.40;;;;;;;;;;7333738;19;154012;-16
2021/10/12 14:03:55;;;;;;;0.75;0.50;;;;;;;;;;7337341;19;153975;-15
2021/10/12 14:06:23;;;;;;;0.60;0.60;;;;;;;;;;7331329;19;161831;-16
2021/10/12 14:08:51;;;;;;;1.75;0.50;;;;;;;;;;7332767;19;162373;-14
2021/10/12 14:11:19;;;;;;;0.40;0.40;;;;;;;;;;7334135;19;153990;-16
2021/10/12 14:13:47;;;;;;;0.43;0.43;;;;;;;;;;7333352;19;153633;-18
2021/10/12 14:16:15;;;;;;;0.50;0.50;;;;;;;;;;7332895;19;161816;-16
2021/10/12 14:18:43;;;;;;;0.50;0.50;;;;;;;;;;7332722;19;162481;-17
2021/10/12 14:21:11;;;;;;;0.40;0.40;;;;;;;;;;7332571;19;154044;-16
2021/10/12 14:23:39;;;;;;;0.40;0.40;;;;;;;;;;7336532;19;153560;-19
2021/10/12 14:26:07;;;;;;;0.50;0.50;;;;;;;;;;7335852;19;162047;-17
2021/10/12 14:28:35;;;;;;;0.45;0.45;;;;;;;;;;7336491;19;162521;-15
2021/10/12 14:31:04;;;;;;;0.40;0.40;;;;;;;;;;7336514;19;154023;-20
2021/10/12 14:33:31;;;;;;;0.50;0.50;;;;;;;;;;7335971;19;153565;-15
2021/10/12 14:35:59;;;;;;;0.50;0.50;;;;;;;;;;7334746;19;161822;-19
2021/10/12 14:38:27;;;;;;;0.73;0.40;;;;;;;;;;7336407;19;162370;-17
2021/10/12 14:40:56;;;;;;;0.50;0.50;;;;;;;;;;7334565;19;155391;-16
2021/10/12 14:43:24;;;;;;;0.40;0.40;;;;;;;;;;7334239;19;153551;-18
2021/10/12 14:45:52;;;;;;;0.40;0.40;;;;;;;;;;7336268;19;161820;-18
2021/10/12 14:48:20;;;;;;;0.50;0.50;;;;;;;;;;7334646;19;162374;-16
2021/10/12 14:50:48;;;;;;;0.40;0.40;;;;;;;;;;7335867;19;154309;-17
2021/10/12 14:53:26;;;;;;;0.40;0.40;;;;;;;;;;7335018;19;153566;-16
2021/10/12 14:55:55;;;;;;;0.40;0.40;;;;;;;;;;7334641;19;162002;-18
2021/10/12 14:58:24;;;;;;;0.45;0.45;;;;;;;;;;7331766;19;162508;-18
2021/10/12 15:00:52;;;;;;;0.40;0.40;;;;;;;;;;7332758;19;154040;-19
2021/10/12 15:03:20;;;;;;;0.40;0.40;;;;;;;;;;7332048;19;153567;-19
2021/10/12 15:05:48;;;;;;;0.40;0.40;;;;;;;;;;7331960;19;161949;-17
2021/10/12 15:08:17;;;;;;;0.40;0.40;;;;;;;;;;7333083;19;162579;-16
2021/10/12 15:10:45;;;;;;;0.50;0.50;;;;;;;;;;7333996;19;154068;-23
2021/10/12 15:13:13;;;;;;;0.93;0.45;;;;;;;;;;7335621;19;153615;-19
2021/10/12 15:15:42;;;;;;;0.40;0.40;;;;;;;;;;7334706;19;161824;-17
2021/10/12 15:18:10;;;;;;;0.40;0.40;;;;;;;;;;7328256;19;162833;-16
2021/10/12 15:20:39;;;;;;;0.63;0.40;;;;;;;;;;7332169;19;153982;-16
2021/10/12 15:23:07;;;;;;;0.40;0.40;;;;;;;;;;7331038;19;153558;-16
2021/10/12 15:25:39;;;;;;;0.40;0.40;;;;;;;;;;7331366;19;162006;-23
2021/10/12 15:28:07;;;;;;;0.45;0.45;;;;;;;;;;7331588;19;162475;-16
2021/10/12 15:30:36;;;;;;;0.40;0.40;;;;;;;;;;7330679;19;153968;-15
2021/10/12 15:33:04;;;;;;;0.30;0.30;;;;;;;;;;7330262;19;153570;-18
2021/10/12 15:35:32;;;;;;;0.40;0.40;;;;;;;;;;7330885;19;161982;-19
2021/10/12 15:38:00;;;;;;;0.40;0.40;;;;;;;;;;7329192;19;162384;-17
2021/10/12 15:40:28;;;;;;;0.30;0.30;;;;;;;;;;7331584;19;154007;-14
2021/10/12 15:42:58;;;;;;;0.40;0.40;;;;;;;;;;7330772;19;153544;-18
2021/10/12 15:45:27;;;;;;;0.95;0.50;;;;;;;;;;7329663;19;161954;-17
2021/10/12 15:47:55;;;;;;;0.40;0.40;;;;;;;;;;7332701;19;162593;-15
2021/10/12 15:50:23;;;;;;;0.40;0.40;;;;;;;;;;7333938;19;154258;-18
2021/10/12 15:52:54;;;;;;;0.40;0.40;;;;;;;;;;7334988;19;153514;-17
2021/10/12 15:55:22;;;;;;;0.40;0.40;;;;;;;;;;7330910;19;162112;-16
2021/10/12 15:57:49;;;;;;;0.50;0.50;;;;;;;;;;7328931;19;162587;-17
2021/10/12 16:00:18;;;;;;;0.40;0.40;;;;;;;;;;7334823;19;154224;-18
2021/10/12 16:02:46;;;;;;;0.50;0.50;;;;;;;;;;7328173;19;154141;-16
2021/10/12 16:05:14;;;;;;;0.77;0.77;;;;;;;;;;7327517;19;161800;-17
2021/10/12 16:07:42;;;;;;;0.98;0.50;;;;;;;;;;7330528;19;162225;-17
2021/10/12 16:10:12;;;;;;;0.60;0.60;;;;;;;;;;7330800;19;154158;-17
2021/10/12 16:12:41;;;;;;;0.50;0.50;;;;;;;;;;7330610;19;153594;-15
2021/10/12 16:18:10;;;;;;;0.57;0.57;;;;;;;;;;7328458;19;162384;-18
2021/10/12 16:23:27;;;;;;;0.60;0.60;;;;;;;;;;7331888;19;153687;-18
2021/10/12 16:25:55;;;;;;;0.60;0.60;;;;;;;;;;7329460;19;162087;-17
2021/10/12 16:28:23;;;;;;;0.60;0.60;;;;;;;;;;7329696;19;162340;-14
2021/10/12 16:30:51;;;;;;;0.65;0.65;;;;;;;;;;7330152;19;153834;-16
2021/10/12 16:33:19;;;;;;;0.70;0.70;;;;;;;;;;7329773;19;154359;-17
2021/10/12 16:35:47;;;;;;;0.90;0.90;;;;;;;;;;7329426;19;161959;-17
2021/10/12 16:38:15;;;;;;;0.80;0.80;;;;;;;;;;7326157;19;162360;-17
2021/10/12 16:40:43;;;;;;;0.95;0.80;;;;;;;;;;7324783;19;154613;-17
2021/10/12 16:43:11;;;;;;;0.70;0.70;;;;;;;;;;7313960;19;153595;-19
2021/10/12 16:45:40;;;;;;;0.70;0.70;;;;;;;;;;7303205;19;161976;-15
2021/10/12 16:48:07;;;;;;;0.75;0.75;;;;;;;;;;7326438;19;162500;-17
2021/10/12 16:50:37;;;;;;;0.98;0.82;;;;;;;;;;7329608;19;153970;-15
2021/10/12 16:53:06;;;;;;;0.80;0.80;;;;;;;;;;7329210;19;153499;-16
2021/10/12 16:55:39;;;;;;;0.90;0.80;;;;;;;;;;7329480;19;161824;-17
2021/10/12 16:58:09;;;;;;;0.70;0.70;;;;;;;;;;7327257;19;162340;-18
2021/10/12 17:00:38;;;;;;;0.60;0.60;;;;;;;;;;7329526;19;154101;-14
2021/10/12 17:03:07;;;;;;;0.70;0.70;;;;;;;;;;7329282;19;153653;-16
2021/10/12 17:05:35;;;;;;;0.60;0.60;;;;;;;;;;7327210;19;162066;-15
2021/10/12 17:08:03;;;;;;;0.60;0.60;;;;;;;;;;7329145;19;162389;-15
2021/10/12 17:10:31;;;;;;;0.70;0.70;;;;;;;;;;7329220;19;154066;-19
2021/10/12 17:12:58;;;;;;;0.85;0.80;;;;;;;;;;7328837;19;153671;-17
2021/10/12 17:15:27;;;;;;;0.70;0.60;;;;;;;;;;7327380;19;162098;-16
2021/10/12 17:17:55;;;;;;;0.80;0.70;;;;;;;;;;7332780;19;162403;-16
2021/10/12 17:20:24;;;;;;;0.60;0.60;;;;;;;;;;7335698;19;153960;-14
2021/10/12 17:22:52;;;;;;;0.65;0.60;;;;;;;;;;7334827;19;154547;-15
2021/10/12 17:25:20;;;;;;;0.60;0.60;;;;;;;;;;7335105;19;161978;-16
2021/10/12 17:27:48;;;;;;;0.65;0.65;;;;;;;;;;7335142;19;162373;-16
2021/10/12 17:30:17;;;;;;;1.10;0.50;;;;;;;;;;7335467;19;154035;-17
2021/10/12 17:32:46;;;;;;;0.50;0.50;;;;;;;;;;7335324;19;153800;-17
2021/10/12 17:35:14;;;;;;;0.50;0.50;;;;;;;;;;7333863;19;161899;-16
2021/10/12 17:37:41;;;;;;;0.50;0.50;;;;;;;;;;7334035;19;162475;-17
2021/10/12 17:40:10;;;;;;;0.60;0.60;;;;;;;;;;7335238;19;154083;-17
2021/10/12 17:42:40;;;;;;;0.60;0.60;;;;;;;;;;7334072;19;153546;-18
2021/10/12 17:45:08;;;;;;;1.15;0.60;;;;;;;;;;7333825;19;161917;-17
2021/10/12 17:47:38;;;;;;;0.50;0.50;;;;;;;;;;7334832;19;162993;-17
2021/10/12 17:50:10;;;;;;;0.50;0.50;;;;;;;;;;7333871;19;154037;-18
2021/10/12 17:52:38;;;;;;;0.50;0.50;;;;;;;;;;7333849;19;153601;-17
2021/10/12 17:55:10;;;;;;;0.45;0.45;;;;;;;;;;7334045;19;162256;-17
2021/10/12 17:57:38;;;;;;;0.90;0.80;;;;;;;;;;7333464;19;162621;-17
2021/10/12 18:00:07;;;;;;;0.50;0.50;;;;;;;;;;7334785;19;154140;-18
2021/10/12 18:02:43;;;;;;;0.60;0.60;;;;;;;;;;7333348;19;153595;-18
2021/10/12 18:05:11;;;;;;;0.50;0.50;;;;;;;;;;7332879;19;161967;-16
2021/10/12 18:07:39;;;;;;;0.50;0.50;;;;;;;;;;7334134;19;162491;-16
2021/10/12 18:10:08;;;;;;;0.50;0.50;;;;;;;;;;7332767;19;154045;-18
2021/10/12 18:12:36;;;;;;;0.70;0.70;;;;;;;;;;7334424;19;153759;-18
2021/10/12 18:15:05;;;;;;;1.58;1.48;;;;;;;;;;7332744;19;161939;-16
2021/10/12 18:17:33;;;;;;;0.73;0.73;;;;;;;;;;7332341;19;162445;-16
2021/10/12 18:20:02;;;;;;;1.20;1.20;;;;;;;;;;7333227;19;154275;-18
2021/10/12 18:22:30;;;;;;;1.08;1.08;;;;;;;;;;7334094;19;153517;-16
2021/10/12 18:24:58;;;;;;;1.27;1.17;;;;;;;;;;7333893;19;162238;-18
2021/10/12 18:27:28;;;;;;;1.05;1.00;;;;;;;;;;7332693;19;162361;-16
2021/10/12 18:29:56;;;;;;;1.10;1.00;;;;;;;;;;7334020;19;154059;-16
2021/10/12 18:32:24;;;;;;;1.00;1.00;;;;;;;;;;7333714;19;153541;-18
2021/10/12 18:34:52;;;;;;;1.05;1.02;;;;;;;;;;7331927;19;161830;-17
2021/10/12 18:37:25;;;;;;;;;;;;;;;;;;7333850;19;162258;-17
2021/10/12 18:39:53;;;;;;;1.67;1.58;;;;;;;;;;7332528;19;154476;-18
2021/10/12 18:42:22;;;;;;;2.15;1.48;;;;;;;;;;7333495;19;153526;-14
2021/10/12 18:44:50;;;;;;;1.50;1.40;;;;;;;;;;7332986;19;161833;-17
2021/10/12 18:47:39;;;;;;;1.70;1.60;;;;;;;;;;7332742;19;162457;-16
2021/10/12 18:50:08;;;;;;;1.60;1.50;;;;;;;;;;7335926;19;154843;-16
2021/10/12 18:52:38;;;;;;;1.70;1.60;;;;;;;;;;7335873;19;153462;-18
2021/10/12 18:55:09;;;;;;;1.70;1.60;;;;;;;;;;7331718;19;162030;-16
2021/10/12 18:57:40;;;;;;;1.60;1.50;;;;;;;;;;7335617;19;162361;-15
2021/10/12 19:00:13;;;;;;;1.75;1.50;;;;;;;;;;7336612;19;153920;-16
2021/10/12 19:02:43;;;;;;;1.50;1.40;;;;;;;;;;7336729;19;153509;-14
2021/10/12 19:05:13;;;;;;;1.75;1.65;;;;;;;;;;7333432;19;162579;-16
2021/10/12 19:07:43;;;;;;;1.50;1.42;;;;;;;;;;7335698;19;164669;-15
2021/10/12 19:10:14;;;;;;;1.80;1.70;;;;;;;;;;7336431;19;154065;-17
2021/10/12 19:12:43;;;;;;;1.58;1.45;;;;;;;;;;7335321;19;153547;-16
2021/10/12 19:15:12;;;;;;;4.97;4.57;;;;;;;;;;7333540;19;161819;-16
2021/10/12 19:17:40;;;;;;;7.07;6.40;;;;;;;;;;7334005;19;162546;-17
2021/10/12 19:20:09;;;;;;;6.20;5.60;;;;;;;;;;7336007;19;154140;-16
2021/10/12 19:22:37;;;;;;;5.30;4.80;;;;;;;;;;7334587;19;153544;-17
2021/10/12 19:25:06;;;;;;;3.00;2.80;;;;;;;;;;7335999;19;162053;-16
2021/10/12 19:27:34;;;;;;;2.88;2.67;;;;;;;;;;7331645;19;162383;-16
2021/10/12 19:30:03;;;;;;;2.78;2.58;;;;;;;;;;7331009;19;154044;-16
2021/10/12 19:32:31;;;;;;;2.63;2.47;;;;;;;;;;7330805;19;153746;-14
2021/10/12 19:34:59;;;;;;;2.78;2.58;;;;;;;;;;7332828;19;161798;-16
2021/10/12 19:37:28;;;;;;;2.70;2.50;;;;;;;;;;7333001;19;162615;-16
2021/10/12 19:39:55;;;;;;;2.65;2.45;;;;;;;;;;7329489;19;154169;-18
2021/10/12 19:42:24;;;;;;;2.42;2.33;;;;;;;;;;7333443;19;153547;-14
2021/10/12 19:44:51;;;;;;;2.53;2.33;;;;;;;;;;7333807;19;162186;-16
2021/10/12 19:47:19;;;;;;;2.38;2.20;;;;;;;;;;7334808;19;162516;-15
2021/10/12 19:49:47;;;;;;;2.65;2.45;;;;;;;;;;7335042;19;153927;-17
2021/10/12 19:52:15;;;;;;;2.38;2.22;;;;;;;;;;7334732;19;153526;-17
2021/10/12 19:54:43;;;;;;;2.22;2.13;;;;;;;;;;7332309;19;161836;-18
2021/10/12 19:57:11;;;;;;;2.72;2.55;;;;;;;;;;7329400;19;162515;-17
2021/10/12 19:59:39;;;;;;;2.40;2.20;;;;;;;;;;7329156;19;154029;-17
2021/10/12 20:04:54;;;;;;;2.60;2.40;;;;;;;;;;7333020;19;161984;-19
2021/10/12 20:07:23;;;;;;;2.53;2.33;;;;;;;;;;7334562;19;162439;-19
2021/10/12 20:09:51;;;;;;;2.65;2.50;;;;;;;;;;7331698;19;154073;-14
2021/10/12 20:12:19;;;;;;;2.80;2.60;;;;;;;;;;7332915;19;154455;-17
2021/10/12 20:14:47;;;;;;;2.15;2.05;;;;;;;;;;7333699;19;161777;-18
2021/10/12 20:17:16;;;;;;;2.42;2.33;;;;;;;;;;7332826;19;162542;-17
2021/10/12 20:22:31;;;;;;;2.28;2.17;;;;;;;;;;7332306;19;153757;-16
2021/10/12 20:24:59;;;;;;;2.33;2.22;;;;;;;;;;7332398;19;161808;-16
2021/10/12 20:27:27;;;;;;;2.53;2.42;;;;;;;;;;7332357;19;162497;-16
2021/10/12 20:29:55;;;;;;;2.40;2.30;;;;;;;;;;7334211;19;154326;-16
2021/10/12 20:32:24;;;;;;;2.28;2.15;;;;;;;;;;7333644;19;154947;-16
2021/10/12 20:34:52;;;;;;;2.47;2.38;;;;;;;;;;7333215;19;161952;-17
2021/10/12 20:37:20;;;;;;;2.60;2.40;;;;;;;;;;7330877;19;162687;-16
2021/10/12 20:39:48;;;;;;;2.47;2.28;;;;;;;;;;7330326;19;154073;-17
2021/10/12 20:42:17;;;;;;;2.28;2.17;;;;;;;;;;7333737;19;153478;-16
2021/10/12 20:44:45;;;;;;;2.10;2.00;;;;;;;;;;7333273;19;162083;-15
2021/10/12 20:47:13;;;;;;;2.35;2.25;;;;;;;;;;7329698;19;162679;-17
2021/10/12 20:49:41;;;;;;;2.08;1.98;;;;;;;;;;7329469;19;153977;-17
2021/10/12 20:52:10;;;;;;;2.08;1.98;;;;;;;;;;7330049;19;153639;-17
2021/10/12 20:54:38;;;;;;;2.10;2.00;;;;;;;;;;7329236;19;161883;-17
2021/10/12 20:57:05;;;;;;;2.28;2.17;;;;;;;;;;7329251;19;162494;-15
2021/10/12 20:59:33;;;;;;;2.22;2.13;;;;;;;;;;7327891;19;154091;-17
2021/10/12 21:02:02;;;;;;;2.72;2.55;;;;;;;;;;7329449;19;153600;-15
2021/10/12 21:04:30;;;;;;;2.40;2.20;;;;;;;;;;7328207;19;162062;-18
2021/10/12 21:06:58;;;;;;;2.25;2.13;;;;;;;;;;7325495;19;163243;-14
2021/10/12 21:09:26;;;;;;;2.08;1.98;;;;;;;;;;7327568;19;153989;-14
2021/10/12 21:11:54;;;;;;;2.10;2.00;;;;;;;;;;7328948;19;153558;-18
2021/10/12 21:14:21;;;;;;;2.00;1.90;;;;;;;;;;7327077;19;162010;-15
2021/10/12 21:16:49;;;;;;;2.20;2.10;;;;;;;;;;7328381;19;162541;-17
2021/10/12 21:19:17;;;;;;;2.22;2.13;;;;;;;;;;7327679;19;154033;-16
2021/10/12 21:21:47;;;;;;;2.00;1.90;;;;;;;;;;7328706;19;153552;-16
2021/10/12 21:24:17;;;;;;;2.00;1.90;;;;;;;;;;7328525;19;161833;-18
2021/10/12 21:26:45;;;;;;;1.92;1.83;;;;;;;;;;7328543;19;162530;-17
2021/10/12 21:29:13;;;;;;;2.00;1.90;;;;;;;;;;7328570;19;154109;-17
2021/10/12 21:31:41;;;;;;;2.10;2.00;;;;;;;;;;7327545;19;153515;-18
2021/10/12 21:34:10;;;;;;;2.20;2.00;;;;;;;;;;7329445;19;162073;-15
2021/10/12 21:36:38;;;;;;;1.95;1.85;;;;;;;;;;7330243;19;162442;-20
2021/10/12 21:39:06;;;;;;;2.08;1.98;;;;;;;;;;7331185;19;153988;-16
2021/10/12 21:41:34;;;;;;;2.10;2.00;;;;;;;;;;7330983;19;153543;-15
2021/10/12 21:44:03;;;;;;;1.83;1.73;;;;;;;;;;7327822;19;161848;-17
2021/10/12 21:46:33;;;;;;;1.92;1.83;;;;;;;;;;7329740;19;162449;-18
2021/10/12 21:49:02;;;;;;;2.15;2.05;;;;;;;;;;7331302;19;154025;-17
2021/10/12 21:51:30;;;;;;;1.70;1.60;;;;;;;;;;7329662;19;153800;-14
2021/10/12 21:53:58;;;;;;;1.83;1.73;;;;;;;;;;7330960;19;161921;-18
2021/10/12 21:56:26;;;;;;;2.20;2.10;;;;;;;;;;7329158;19;163718;-16
2021/10/12 21:58:54;;;;;;;1.92;1.83;;;;;;;;;;7329395;19;154055;-16
2021/10/12 22:01:22;;;;;;;1.63;1.52;;;;;;;;;;7331052;19;153667;-16
2021/10/12 22:03:50;;;;;;;2.00;1.90;;;;;;;;;;7335535;19;162113;-17
2021/10/12 22:06:17;;;;;;;1.52;1.52;;;;;;;;;;7335194;19;162505;-17
2021/10/12 22:08:45;;;;;;;1.80;1.70;;;;;;;;;;7338078;19;153979;-17
2021/10/12 22:11:14;;;;;;;2.05;1.95;;;;;;;;;;7337159;19;153657;-19
2021/10/12 22:13:43;;;;;;;1.98;1.88;;;;;;;;;;7337435;19;161786;-16
2021/10/12 22:16:11;;;;;;;2.10;2.00;;;;;;;;;;7336935;19;162343;-18
2021/10/12 22:18:39;;;;;;;1.70;1.60;;;;;;;;;;7337525;19;153991;-16
2021/10/12 22:21:07;;;;;;;1.90;1.80;;;;;;;;;;7335284;19;153484;-16
2021/10/12 22:23:37;;;;;;;1.67;1.58;;;;;;;;;;7335654;19;161922;-17
2021/10/12 22:26:06;;;;;;;2.00;1.90;;;;;;;;;;7333522;19;162354;-19
2021/10/12 22:28:36;;;;;;;1.77;1.70;;;;;;;;;;7333197;19;153952;-17
2021/10/12 22:31:06;;;;;;;1.90;1.80;;;;;;;;;;7334095;19;153501;-15
2021/10/12 22:33:35;;;;;;;1.70;1.60;;;;;;;;;;7332380;19;161823;-19
2021/10/12 22:36:04;;;;;;;1.60;1.55;;;;;;;;;;7333693;19;162621;-18
2021/10/12 22:38:32;;;;;;;1.65;1.60;;;;;;;;;;7333714;19;154020;-17
2021/10/12 22:41:00;;;;;;;1.65;1.55;;;;;;;;;;7330296;19;154500;-17
2021/10/12 22:43:29;;;;;;;1.60;1.50;;;;;;;;;;7333128;19;161797;-18
2021/10/12 22:45:57;;;;;;;1.50;1.40;;;;;;;;;;7332942;19;162537;-18
2021/10/12 22:48:25;;;;;;;1.77;1.67;;;;;;;;;;7336373;19;154302;-18
2021/10/12 22:50:53;;;;;;;1.50;1.50;;;;;;;;;;7333652;19;153488;-18
2021/10/12 22:53:20;;;;;;;1.73;1.63;;;;;;;;;;7331763;19;161987;-17
2021/10/12 22:55:48;;;;;;;1.67;1.58;;;;;;;;;;7333017;19;162371;-19
2021/10/12 22:58:16;;;;;;;1.58;1.48;;;;;;;;;;7333044;19;154188;-14
2021/10/12 23:00:44;;;;;;;1.33;1.33;;;;;;;;;;7330021;19;153799;-15
2021/10/12 23:03:13;;;;;;;1.65;1.55;;;;;;;;;;7332849;19;161923;-16
2021/10/12 23:05:42;;;;;;;1.33;1.33;;;;;;;;;;7331571;19;162380;-16
2021/10/12 23:08:10;;;;;;;1.80;1.70;;;;;;;;;;7332696;19;153955;-15
2021/10/12 23:10:40;;;;;;;1.00;1.00;;;;;;;;;;7332754;19;153657;-17
2021/10/12 23:13:08;;;;;;;1.30;1.30;;;;;;;;;;7332435;19;161840;-18
2021/10/12 23:15:36;;;;;;;1.10;1.10;;;;;;;;;;7331148;19;162730;-17
2021/10/12 23:18:04;;;;;;;1.40;1.30;;;;;;;;;;7334075;19;154272;-16
2021/10/12 23:20:32;;;;;;;1.60;1.50;;;;;;;;;;7334083;19;153850;-15
2021/10/12 23:23:00;;;;;;;1.25;1.25;;;;;;;;;;7330766;19;161899;-15
2021/10/12 23:25:28;;;;;;;1.60;1.50;;;;;;;;;;7332258;19;162368;-18
2021/10/12 23:27:56;;;;;;;1.48;1.38;;;;;;;;;;7333918;19;154056;-15
2021/10/12 23:30:24;;;;;;;1.23;1.23;;;;;;;;;;7332261;19;153525;-17
2021/10/12 23:32:52;;;;;;;1.23;1.23;;;;;;;;;;7331929;19;161803;-18
2021/10/12 23:35:20;;;;;;;1.25;1.25;;;;;;;;;;7331527;19;162425;-19
2021/10/12 23:37:48;;;;;;;1.35;1.35;;;;;;;;;;7332108;19;153972;-16
2021/10/12 23:40:16;;;;;;;1.25;1.25;;;;;;;;;;7330569;19;153548;-17
2021/10/12 23:42:44;;;;;;;1.60;1.50;;;;;;;;;;7330300;19;162232;-17
2021/10/12 23:45:12;;;;;;;1.30;1.30;;;;;;;;;;7331466;19;162662;-18
2021/10/12 23:47:40;;;;;;;1.25;1.25;;;;;;;;;;7331963;19;154027;-17
2021/10/12 23:50:09;;;;;;;1.08;1.08;;;;;;;;;;7331752;19;153605;-15